Date,TemperatureHighF,TemperatureAvgF,TemperatureLowF,DewpointHighF,DewpointAvgF,DewpointLowF,HumidityHigh,HumidityAvg,HumidityLow,PressureMaxIn,PressureMinIn,WindSpeedMaxMPH,WindSpeedAvgMPH,GustSpeedMaxMPH,PrecipitationSumIn
2013-5-1,84.5,62.8,42.9,51.7,39.3,29.2,84,51,15,30.09,29.86,2,0,5,0.00
2013-5-2,92.0,66.4,46.1,53.0,42.7,33.0,84,51,16,30.16,30.07,2,0,4,0.00
2013-5-3,90.4,66.1,47.0,52.6,42.8,35.7,80,49,16,30.10,29.80,2,0,4,0.00
2013-5-4,89.9,65.5,47.1,58.4,45.8,38.4,86,55,22,29.80,29.55,2,0,4,0.00
2013-5-5,69.1,59.4,54.0,51.6,48.8,46.2,81,68,52,29.81,29.60,3,1,5,0.00
2013-5-6,72.2,59.0,48.1,54.7,50.1,45.6,94,73,48,29.97,29.81,2,0,5,0.00
2013-5-7,72.1,60.0,48.3,54.4,49.8,44.6,87,70,46,30.05,29.96,2,0,5,0.00
2013-5-8,71.7,56.2,46.2,54.9,48.5,43.9,93,78,46,30.17,30.05,2,0,4,0.00
2013-5-9,74.1,57.2,44.8,55.1,49.0,42.9,95,76,48,30.20,30.09,2,0,3,0.00
2013-5-10,77.4,58.7,44.8,58.4,51.0,42.9,95,78,50,30.21,30.12,2,0,4,0.00
2013-5-11,86.3,64.5,52.5,62.8,55.2,50.5,94,75,41,30.17,30.04,1,0,3,0.00
2013-5-12,85.0,63.7,46.7,62.2,51.8,43.8,97,70,28,30.15,30.03,2,0,5,0.00
2013-5-13,84.6,60.6,42.9,59.5,50.0,40.7,94,71,39,30.10,29.97,2,0,7,0.00
2013-5-14,79.5,59.4,45.2,56.5,47.5,41.9,96,69,32,30.04,29.95,2,0,5,0.00
2013-5-15,70.4,54.9,41.6,49.6,44.8,39.6,95,72,39,30.08,30.02,2,0,6,0.00
2013-5-16,71.5,58.7,50.6,55.9,50.3,46.8,89,75,46,30.06,29.99,3,0,8,0.00
2013-5-17,70.6,55.8,43.4,49.4,44.7,40.6,95,70,37,30.11,30.00,3,0,6,0.00
2013-5-18,77.3,57.0,40.6,51.6,45.5,39.0,96,70,30,30.15,30.10,2,0,5,0.00
2013-5-19,83.9,62.6,43.6,53.9,44.4,41.1,94,58,24,30.13,29.98,3,0,5,0.00
2013-5-20,90.6,65.0,45.6,57.7,43.2,35.9,92,54,16,30.01,29.92,3,0,7,0.00
2013-5-21,72.1,56.6,46.9,51.8,43.5,36.8,89,65,29,30.01,29.93,4,1,11,0.00
2013-5-22,66.1,52.6,43.2,41.3,36.7,26.6,86,58,23,30.03,29.94,3,1,7,0.00
2013-5-23,70.6,53.9,41.0,46.4,41.2,35.9,88,65,38,30.03,29.95,2,1,10,0.00
2013-5-24,70.6,52.1,36.5,50.7,41.0,34.1,95,69,37,30.02,29.97,3,0,10,0.00
2013-5-25,68.7,53.7,41.0,48.1,44.4,38.9,94,73,44,30.09,29.99,2,1,7,0.00
2013-5-26,72.6,59.7,51.1,54.8,50.6,47.5,92,74,47,30.15,30.08,3,1,6,0.00
2013-5-27,66.1,57.3,46.4,55.7,51.4,44.5,94,81,65,30.16,30.01,2,0,5,0.00
2013-5-28,71.9,60.6,50.8,58.2,52.8,46.1,96,78,47,30.01,29.93,3,1,8,0.00
2013-5-29,54.6,52.7,51.0,48.7,47.7,46.6,86,83,79,29.97,29.94,0,0,2,0.00
2013-5-30,80.4,58.3,40.6,50.0,40.6,31.2,95,61,17,30.00,29.94,2,0,5,0.00
2013-5-31,91.3,64.3,41.5,54.0,45.4,38.8,92,58,21,30.02,29.91,2,0,5,0.00